Time;durP1;ratioP1;P1;durP2;ratioP2;P2;SDS_P1;SDS_P2;PMS_P1;PMS_P2;Temp;Humidity;BMP_temperature;BMP_pressure;BME280_temperature;BME280_humidity;BME280_pressure;Samples;Min_cycle;Max_cycle;Signal;HPM_P1;HPM_P2
2022/01/13 00:00:57;;;;;;;2.20;2.10;;;3.80;99.90;;;;;;4990348;28;20455;-72
2022/01/13 00:03:23;;;;;;;2.23;2.13;;;3.80;99.90;;;;;;4991220;28;20188;-72
2022/01/13 00:05:48;;;;;;;1.53;1.43;;;3.80;99.90;;;;;;4990994;28;20200;-72
2022/01/13 00:08:14;;;;;;;0.70;0.70;;;3.70;99.90;;;;;;4992634;28;20184;-73
2022/01/13 00:10:40;;;;;;;3.33;3.13;;;3.90;99.90;;;;;;4993110;28;20184;-73
2022/01/13 00:13:08;;;;;;;2.00;1.67;;;3.90;99.90;;;;;;4992430;28;20207;-73
2022/01/13 00:18:29;;;;;;;1.53;1.43;;;3.90;99.90;;;;;;4993532;28;20467;-71
2022/01/13 00:26:29;;;;;;;3.33;1.33;;;4.10;99.90;;;;;;4991933;28;20200;-72
2022/01/13 00:28:57;;;;;;;3.13;1.73;;;4.10;99.90;;;;;;4991691;28;20489;-73
2022/01/13 00:31:27;;;;;;;2.03;1.93;;;4.10;99.90;;;;;;4993517;28;20467;-73
2022/01/13 00:33:57;;;;;;;0.60;0.60;;;4.10;99.90;;;;;;4993245;28;20527;-73
2022/01/13 00:36:25;;;;;;;1.67;1.57;;;4.00;99.90;;;;;;4994038;28;20471;-73
2022/01/13 00:38:52;;;;;;;1.73;1.63;;;4.00;99.90;;;;;;4994822;28;20485;-73
2022/01/13 00:41:19;;;;;;;0.87;0.87;;;3.90;99.90;;;;;;4993996;28;20432;-73
2022/01/13 00:43:46;;;;;;;3.43;3.13;;;3.90;99.90;;;;;;4994854;28;20420;-73
2022/01/13 00:46:20;;;;;;;1.87;1.77;;;3.90;99.90;;;;;;4993205;28;20459;-73
2022/01/13 00:48:46;;;;;;;2.90;1.67;;;4.00;99.90;;;;;;4992768;28;20468;-73
2022/01/13 00:51:12;;;;;;;1.30;1.30;;;4.10;99.90;;;;;;4994311;28;20486;-73
2022/01/13 00:53:37;;;;;;;0.90;0.90;;;4.10;99.90;;;;;;4994684;28;20459;-73
2022/01/13 00:56:03;;;;;;;1.03;1.00;;;4.10;99.90;;;;;;4993325;28;20204;-72
2022/01/13 00:58:31;;;;;;;1.27;1.27;;;4.00;99.90;;;;;;4989355;28;20177;-73
2022/01/13 01:00:58;;;;;;;1.90;1.80;;;4.00;99.90;;;;;;4975050;28;20188;-73
2022/01/13 01:03:24;;;;;;;1.87;1.70;;;4.10;99.90;;;;;;4993368;28;20428;-74
2022/01/13 01:05:50;;;;;;;2.57;2.20;;;4.10;99.90;;;;;;4994368;28;20478;-73
2022/01/13 01:08:15;;;;;;;2.03;1.93;;;4.10;99.90;;;;;;4975856;28;20490;-73
2022/01/13 01:10:42;;;;;;;1.30;1.20;;;4.00;99.90;;;;;;4993808;28;20439;-74
2022/01/13 01:13:13;;;;;;;1.43;1.33;;;4.20;99.90;;;;;;4994411;28;20169;-73
2022/01/13 01:15:44;;;;;;;0.80;0.80;;;4.00;99.90;;;;;;4993366;28;20459;-72
2022/01/13 01:18:35;;;;;;;2.50;1.50;;;4.00;99.90;;;;;;4993536;28;20559;-72
2022/01/13 01:21:31;;;;;;;0.60;0.60;;;4.00;99.90;;;;;;4992776;28;21001;-73
2022/01/13 01:26:57;;;;;;;2.10;2.00;;;4.10;99.90;;;;;;4992721;28;20547;-73
2022/01/13 01:29:26;;;;;;;4.40;2.90;;;4.10;99.90;;;;;;4986211;28;20538;-73
2022/01/13 01:31:54;;;;;;;0.97;0.97;;;4.20;99.90;;;;;;4992728;28;20793;-73
2022/01/13 01:36:57;;;;;;;0.70;0.70;;;3.90;99.90;;;;;;4992719;28;20862;-73
2022/01/13 01:39:24;;;;;;;0.70;0.70;;;3.90;99.90;;;;;;4992783;28;20474;-73
2022/01/13 01:41:51;;;;;;;3.23;3.03;;;3.70;99.90;;;;;;4993872;28;20506;-73
2022/01/13 01:44:20;;;;;;;0.80;0.80;;;3.50;99.90;;;;;;4992691;28;20446;-73
2022/01/13 01:46:47;;;;;;;1.17;1.10;;;3.50;99.90;;;;;;4992389;28;20475;-73
2022/01/13 01:49:20;;;;;;;1.53;1.43;;;3.50;99.90;;;;;;4993146;28;20444;-73
2022/01/13 01:51:50;;;;;;;2.43;2.33;;;3.50;99.90;;;;;;4993432;28;20493;-72
2022/01/13 01:54:16;;;;;;;1.00;1.00;;;3.60;99.90;;;;;;4993506;28;20498;-72
2022/01/13 01:56:43;;;;;;;2.07;1.97;;;3.70;99.90;;;;;;4992453;28;20506;-72
2022/01/13 01:59:12;;;;;;;3.93;2.23;;;3.60;99.90;;;;;;4991466;28;20436;-72
2022/01/13 02:01:39;;;;;;;0.87;0.87;;;3.70;99.90;;;;;;4992632;28;20431;-72
2022/01/13 02:04:05;;;;;;;1.70;1.60;;;3.70;99.90;;;;;;4993054;28;20479;-72
2022/01/13 02:06:31;;;;;;;3.37;1.80;;;3.70;99.90;;;;;;4991803;28;20463;-72
2022/01/13 02:08:56;;;;;;;0.60;0.53;;;3.80;99.90;;;;;;4992617;28;20774;-72
2022/01/13 02:11:24;;;;;;;13.63;3.27;;;3.90;99.90;;;;;;4992022;28;20189;-72
2022/01/13 02:13:53;;;;;;;1.20;1.10;;;3.90;99.90;;;;;;4993277;28;20600;-72
2022/01/13 02:16:43;;;;;;;2.40;1.47;;;3.80;99.90;;;;;;4990702;28;20972;-72
2022/01/13 02:19:10;;;;;;;0.70;0.70;;;3.90;99.90;;;;;;4993499;28;20929;-72
2022/01/13 02:21:35;;;;;;;2.10;1.27;;;3.90;99.90;;;;;;4993071;28;20443;-72
2022/01/13 02:24:01;;;;;;;1.13;1.13;;;3.90;99.90;;;;;;4992941;28;20436;-72
2022/01/13 02:26:28;;;;;;;3.17;2.97;;;3.90;99.90;;;;;;4991762;28;20192;-72
2022/01/13 02:28:54;;;;;;;1.33;1.23;;;3.80;99.90;;;;;;4991299;28;20181;-72
2022/01/13 02:31:21;;;;;;;3.70;3.50;;;3.90;99.90;;;;;;4992881;28;20529;-72
2022/01/13 02:33:46;;;;;;;1.30;1.20;;;3.90;99.90;;;;;;4992638;28;20277;-72
2022/01/13 02:36:16;;;;;;;2.93;2.73;;;3.80;99.90;;;;;;4992769;28;22327;-72
2022/01/13 02:38:41;;;;;;;2.87;2.50;;;3.80;99.90;;;;;;4975532;28;20689;-72
2022/01/13 02:41:07;;;;;;;1.83;1.70;;;3.90;99.90;;;;;;4990908;28;20523;-72
2022/01/13 02:43:34;;;;;;;0.90;0.90;;;3.90;99.90;;;;;;4994240;28;20180;-73
2022/01/13 02:47:06;;;;;;;1.80;1.70;;;3.80;99.90;;;;;;4990558;28;20661;-73
2022/01/13 02:48:48;;;;;;;0.60;0.60;;;3.80;99.90;;;;;;4981488;28;20497;-72
2022/01/13 02:51:14;;;;;;;0.90;0.90;;;3.80;99.90;;;;;;4991344;28;20432;-72
2022/01/13 02:53:39;;;;;;;1.47;1.40;;;3.80;99.90;;;;;;4993721;28;20482;-72
2022/01/13 02:56:05;;;;;;;1.97;1.87;;;3.70;99.90;;;;;;4990867;28;20215;-72
2022/01/13 02:58:32;;;;;;;6.50;4.00;;;3.70;99.90;;;;;;4993137;28;20260;-72
2022/01/13 03:00:58;;;;;;;3.07;2.97;;;3.70;99.90;;;;;;4990625;28;20192;-72
2022/01/13 03:03:24;;;;;;;3.23;2.93;;;3.70;99.90;;;;;;4993829;28;20435;-72
2022/01/13 03:05:49;;;;;;;0.93;0.93;;;3.80;99.90;;;;;;4991870;28;20456;-72
2022/01/13 03:08:15;;;;;;;1.93;1.83;;;3.70;99.90;;;;;;4993679;28;20275;-72
2022/01/13 03:10:40;;;;;;;2.77;2.20;;;3.60;99.90;;;;;;4991541;28;20184;-72
2022/01/13 03:13:07;;;;;;;1.27;1.27;;;3.60;99.90;;;;;;4992586;28;20173;-72
2022/01/13 03:15:33;;;;;;;0.70;0.70;;;3.70;99.90;;;;;;4990997;28;20204;-72
2022/01/13 03:17:59;;;;;;;1.87;1.77;;;3.50;99.90;;;;;;4992821;28;20474;-71
2022/01/13 03:20:24;;;;;;;3.07;1.87;;;3.50;99.90;;;;;;4992900;28;20228;-72
2022/01/13 03:22:50;;;;;;;18.63;3.73;;;3.50;99.90;;;;;;4993140;28;20877;-73
2022/01/13 03:25:21;;;;;;;0.60;0.60;;;3.50;99.90;;;;;;4992026;28;20180;-71
2022/01/13 03:27:52;;;;;;;1.27;1.00;;;3.30;99.90;;;;;;4990558;28;20181;-72
2022/01/13 03:30:18;;;;;;;1.03;1.03;;;3.40;99.90;;;;;;4993138;28;20467;-72
2022/01/13 03:32:44;;;;;;;4.73;1.63;;;3.50;99.90;;;;;;4992541;28;20482;-73
2022/01/13 03:35:09;;;;;;;0.87;0.87;;;3.40;99.90;;;;;;4992520;28;20188;-72
2022/01/13 03:37:35;;;;;;;0.70;0.70;;;3.30;99.90;;;;;;4991566;28;20213;-71
2022/01/13 03:40:01;;;;;;;1.10;1.10;;;3.30;99.90;;;;;;4991535;28;20190;-72
2022/01/13 03:42:27;;;;;;;0.70;0.70;;;3.20;99.90;;;;;;4993350;28;20165;-72
2022/01/13 03:44:54;;;;;;;0.60;0.60;;;3.10;99.90;;;;;;4991920;28;20451;-72
2022/01/13 03:47:20;;;;;;;2.30;2.20;;;3.10;99.90;;;;;;4990474;28;20211;-71
2022/01/13 03:49:46;;;;;;;1.37;0.93;;;3.10;99.90;;;;;;4991852;28;20576;-71
2022/01/13 03:52:23;;;;;;;3.73;1.80;;;3.10;99.90;;;;;;4995163;28;20169;-71
2022/01/13 03:55:13;;;;;;;0.90;0.90;;;3.20;99.90;;;;;;4995294;28;20173;-71
2022/01/13 03:58:11;;;;;;;1.30;0.87;;;3.20;99.90;;;;;;4995718;28;20459;-72
2022/01/13 04:00:55;;;;;;;0.60;0.50;;;3.20;99.90;;;;;;4985167;28;20474;-72
2022/01/13 04:03:21;;;;;;;1.00;1.00;;;3.30;99.90;;;;;;4993972;28;20848;-72
2022/01/13 04:06:19;;;;;;;0.83;0.83;;;3.40;99.90;;;;;;4993211;28;20458;-71
2022/01/13 04:08:47;;;;;;;0.73;0.73;;;3.40;99.90;;;;;;4961560;28;20739;-72
2022/01/13 04:11:16;;;;;;;1.53;1.43;;;3.50;99.90;;;;;;4994473;28;20431;-72
2022/01/13 04:13:49;;;;;;;2.80;2.60;;;3.40;99.90;;;;;;4994180;28;20423;-72
2022/01/13 04:16:20;;;;;;;2.80;2.30;;;3.50;99.90;;;;;;4989351;28;20445;-72
2022/01/13 04:18:47;;;;;;;0.70;0.70;;;3.50;99.90;;;;;;4994720;28;20442;-72
2022/01/13 04:21:14;;;;;;;2.20;2.10;;;3.60;99.90;;;;;;4995426;28;20446;-72
2022/01/13 04:23:41;;;;;;;0.60;0.60;;;3.50;99.90;;;;;;4995913;28;20531;-72
2022/01/13 04:26:07;;;;;;;0.60;0.50;;;3.50;99.90;;;;;;4994011;28;20459;-73
2022/01/13 04:28:37;;;;;;;2.77;2.60;;;3.40;99.90;;;;;;4994340;28;20438;-73
2022/01/13 04:31:03;;;;;;;1.17;1.17;;;3.30;99.90;;;;;;4993684;28;20440;-73
2022/01/13 04:33:34;;;;;;;3.00;2.83;;;3.20;99.90;;;;;;4993242;28;20435;-74
2022/01/13 04:36:01;;;;;;;2.03;1.53;;;3.10;99.90;;;;;;4993742;28;20547;-72
2022/01/13 04:38:27;;;;;;;1.50;1.40;;;3.10;99.90;;;;;;4995373;28;20526;-72
2022/01/13 04:40:59;;;;;;;5.10;3.90;;;3.20;99.90;;;;;;4994966;28;20523;-71
2022/01/13 04:43:25;;;;;;;1.73;1.03;;;3.30;99.90;;;;;;4996083;28;20169;-72
2022/01/13 04:45:51;;;;;;;3.53;3.43;;;3.40;99.90;;;;;;4993467;28;20495;-70
2022/01/13 04:48:18;;;;;;;2.00;1.90;;;3.40;99.90;;;;;;4993576;28;20448;-72
2022/01/13 04:50:44;;;;;;;5.43;1.23;;;3.40;99.90;;;;;;4994187;28;20928;-72
2022/01/13 04:53:10;;;;;;;1.90;1.80;;;3.40;99.90;;;;;;4995701;28;20430;-72
2022/01/13 04:55:37;;;;;;;0.73;0.73;;;3.40;99.90;;;;;;4995427;28;20534;-72
2022/01/13 04:58:05;;;;;;;3.60;1.70;;;3.40;99.90;;;;;;4995749;28;21083;-72
2022/01/13 05:00:32;;;;;;;1.17;1.07;;;3.40;99.90;;;;;;4993404;28;21296;-72
2022/01/13 05:02:57;;;;;;;1.13;1.13;;;3.30;99.90;;;;;;4992345;28;20439;-72
2022/01/13 05:05:24;;;;;;;0.80;0.80;;;3.10;99.90;;;;;;4993647;28;20460;-71
2022/01/13 05:07:50;;;;;;;1.50;1.43;;;3.10;99.90;;;;;;4994115;28;20274;-71
2022/01/13 05:10:16;;;;;;;0.60;0.57;;;3.00;99.90;;;;;;4993884;28;21048;-71
2022/01/13 05:12:44;;;;;;;1.17;1.17;;;3.00;99.90;;;;;;4993907;28;20467;-72
2022/01/13 05:15:16;;;;;;;1.60;1.50;;;2.80;99.90;;;;;;4975868;28;20443;-71
2022/01/13 05:18:05;;;;;;;0.90;0.83;;;2.70;99.90;;;;;;4992211;28;20468;-72
2022/01/13 05:20:40;;;;;;;1.40;1.33;;;2.70;99.90;;;;;;4975716;28;20436;-72
2022/01/13 05:23:07;;;;;;;0.80;0.80;;;2.70;99.90;;;;;;4985477;28;20518;-72
2022/01/13 05:25:32;;;;;;;2.10;2.00;;;2.50;99.90;;;;;;4993270;28;20484;-71
2022/01/13 05:27:58;;;;;;;1.00;1.00;;;2.50;99.90;;;;;;4990007;28;20466;-72
2022/01/13 05:30:23;;;;;;;1.23;1.13;;;2.50;99.90;;;;;;4994245;28;20184;-71
2022/01/13 05:32:49;;;;;;;1.47;1.37;;;2.50;99.90;;;;;;4991511;28;20251;-72
2022/01/13 05:35:15;;;;;;;1.77;1.17;;;2.60;99.90;;;;;;4993021;28;20180;-72
2022/01/13 05:37:42;;;;;;;1.43;1.13;;;2.70;99.90;;;;;;4993245;28;20471;-72
2022/01/13 05:40:09;;;;;;;2.60;1.10;;;2.60;99.90;;;;;;4993110;28;20177;-70
2022/01/13 05:42:35;;;;;;;0.60;0.50;;;2.60;99.90;;;;;;4992595;28;20800;-72
2022/01/13 05:45:02;;;;;;;1.33;1.23;;;2.60;99.90;;;;;;4975716;28;20428;-71
2022/01/13 05:47:28;;;;;;;2.00;1.70;;;2.60;99.90;;;;;;4992338;28;20219;-71
2022/01/13 05:49:53;;;;;;;3.80;1.60;;;2.40;99.90;;;;;;4992264;28;20440;-72
2022/01/13 05:52:19;;;;;;;0.60;0.60;;;2.40;99.90;;;;;;4992848;28;20187;-72
2022/01/13 05:54:44;;;;;;;1.00;1.00;;;2.40;99.90;;;;;;4993124;28;20558;-71
2022/01/13 05:57:10;;;;;;;2.60;2.20;;;2.40;99.90;;;;;;4991935;28;20708;-72
2022/01/13 05:59:36;;;;;;;1.53;1.43;;;2.40;99.90;;;;;;4992954;28;20177;-72
2022/01/13 06:02:02;;;;;;;5.90;2.73;;;2.30;99.90;;;;;;4991901;28;20177;-72
2022/01/13 06:04:28;;;;;;;3.70;1.67;;;2.20;99.90;;;;;;4990895;28;20184;-71
2022/01/13 06:06:53;;;;;;;3.37;2.60;;;2.10;99.90;;;;;;4991351;28;20972;-72
2022/01/13 06:09:19;;;;;;;0.60;0.60;;;2.10;99.90;;;;;;4992823;28;20188;-71
2022/01/13 06:11:51;;;;;;;0.60;0.60;;;2.10;99.90;;;;;;4990690;28;20181;-71
2022/01/13 06:14:16;;;;;;;0.60;0.50;;;2.10;99.90;;;;;;4978193;28;20169;-71
2022/01/13 06:16:42;;;;;;;0.83;0.83;;;2.20;99.90;;;;;;4991713;28;20463;-72
2022/01/13 06:19:07;;;;;;;1.97;1.87;;;2.10;99.90;;;;;;4992483;28;20185;-71
2022/01/13 06:21:33;;;;;;;0.67;0.67;;;2.10;99.90;;;;;;4991247;28;20172;-70
2022/01/13 06:23:59;;;;;;;3.13;2.73;;;2.00;99.90;;;;;;4992970;28;20249;-72
2022/01/13 06:26:24;;;;;;;3.50;1.63;;;1.90;99.90;;;;;;4991202;28;20201;-72
2022/01/13 06:28:50;;;;;;;0.60;0.60;;;1.90;99.90;;;;;;4974083;28;20196;-72
2022/01/13 06:31:15;;;;;;;1.63;1.53;;;1.80;99.90;;;;;;4992869;28;20711;-72
2022/01/13 06:33:41;;;;;;;0.60;0.60;;;1.60;99.90;;;;;;4991200;28;20177;-71
2022/01/13 06:36:07;;;;;;;1.00;0.93;;;1.70;99.90;;;;;;4989896;28;20210;-72
2022/01/13 06:38:33;;;;;;;1.37;1.27;;;1.70;99.90;;;;;;4992368;28;20267;-71
2022/01/13 06:41:00;;;;;;;0.60;0.57;;;1.70;99.90;;;;;;4992242;28;20937;-71
2022/01/13 06:43:26;;;;;;;1.27;1.17;;;1.60;99.90;;;;;;4991828;28;20177;-71
2022/01/13 06:45:51;;;;;;;0.80;0.80;;;1.60;99.90;;;;;;4990911;28;20466;-72
2022/01/13 06:48:17;;;;;;;3.10;2.90;;;1.50;99.90;;;;;;4992192;28;20352;-71
2022/01/13 06:50:42;;;;;;;2.10;1.30;;;1.50;99.90;;;;;;4991265;28;20530;-71
2022/01/13 06:53:08;;;;;;;2.70;1.43;;;1.60;99.90;;;;;;4991898;28;20192;-71
2022/01/13 06:55:34;;;;;;;0.60;0.50;;;1.60;99.90;;;;;;4991114;28;20203;-71
2022/01/13 06:57:59;;;;;;;0.90;0.90;;;1.60;99.90;;;;;;4991120;28;20216;-71
2022/01/13 07:00:25;;;;;;;2.37;2.20;;;1.60;99.90;;;;;;4991388;28;20709;-71
2022/01/13 07:02:53;;;;;;;4.43;1.07;;;1.70;99.90;;;;;;4991913;28;20251;-71
2022/01/13 07:05:18;;;;;;;1.10;1.00;;;1.60;99.90;;;;;;4989589;28;20173;-70
2022/01/13 07:07:45;;;;;;;4.63;1.73;;;1.70;99.90;;;;;;4991041;28;20502;-71
2022/01/13 07:10:12;;;;;;;1.67;1.57;;;1.50;99.90;;;;;;4991741;28;20230;-70
2022/01/13 07:12:38;;;;;;;1.47;1.37;;;1.40;99.90;;;;;;4991582;28;20539;-72
2022/01/13 07:15:06;;;;;;;0.60;0.50;;;1.40;99.90;;;;;;4991579;28;20444;-71
2022/01/13 07:17:31;;;;;;;20.10;1.67;;;1.40;99.90;;;;;;4991253;28;20554;-71
2022/01/13 07:19:59;;;;;;;3.90;2.10;;;1.40;99.90;;;;;;4990555;28;20547;-71
2022/01/13 07:22:25;;;;;;;1.90;1.43;;;1.50;99.90;;;;;;4991078;28;20279;-71
2022/01/13 07:24:50;;;;;;;2.60;1.37;;;1.60;99.90;;;;;;4994121;28;20423;-71
2022/01/13 07:27:16;;;;;;;1.07;1.07;;;1.50;99.90;;;;;;4996074;28;20467;-72
2022/01/13 07:29:44;;;;;;;1.37;1.27;;;1.50;99.90;;;;;;4997634;28;20541;-72
2022/01/13 07:32:11;;;;;;;1.10;0.90;;;1.50;99.90;;;;;;4996702;28;20612;-72
2022/01/13 07:34:36;;;;;;;1.00;1.00;;;1.30;99.90;;;;;;4997099;28;20459;-72
2022/01/13 07:37:02;;;;;;;0.60;0.60;;;1.40;99.90;;;;;;4996882;28;20501;-71
2022/01/13 07:39:28;;;;;;;1.43;1.43;;;1.40;99.90;;;;;;4998737;28;20175;-71
2022/01/13 07:41:53;;;;;;;1.03;0.93;;;1.40;99.90;;;;;;4997461;28;20255;-71
2022/01/13 07:44:19;;;;;;;1.00;1.00;;;1.30;99.90;;;;;;4997999;28;20199;-72
2022/01/13 07:46:45;;;;;;;2.50;2.20;;;1.30;99.90;;;;;;4997237;28;20213;-71
2022/01/13 07:49:10;;;;;;;0.90;0.90;;;1.30;99.90;;;;;;4997884;28;20185;-71
2022/01/13 07:51:36;;;;;;;1.03;1.03;;;1.40;99.90;;;;;;4993276;28;20964;-71
2022/01/13 07:54:02;;;;;;;0.60;0.50;;;1.50;99.90;;;;;;4996285;28;20212;-71
2022/01/13 07:56:28;;;;;;;1.67;1.47;;;1.50;99.90;;;;;;4997132;28;20204;-71
2022/01/13 07:58:54;;;;;;;0.70;0.70;;;1.50;99.90;;;;;;4998140;28;20429;-70
2022/01/13 08:01:20;;;;;;;0.87;0.87;;;1.50;99.90;;;;;;4997413;28;20215;-71
2022/01/13 08:03:46;;;;;;;3.60;3.30;;;1.50;99.90;;;;;;4997581;28;20990;-71
2022/01/13 08:06:12;;;;;;;1.47;1.37;;;1.40;99.90;;;;;;4998109;28;20576;-72
2022/01/13 08:08:38;;;;;;;0.60;0.50;;;1.40;99.90;;;;;;4998573;28;20165;-72
2022/01/13 08:11:05;;;;;;;3.93;3.03;;;1.30;99.90;;;;;;4998156;28;20187;-71
2022/01/13 08:13:30;;;;;;;9.80;1.60;;;1.50;99.90;;;;;;4997314;28;20448;-71
2022/01/13 08:15:58;;;;;;;0.60;0.60;;;1.50;99.90;;;;;;4995520;28;20474;-71
2022/01/13 08:21:08;;;;;;;2.20;2.10;;;1.30;99.90;;;;;;4997622;28;20588;-71
2022/01/13 08:23:33;;;;;;;4.50;1.73;;;1.30;99.90;;;;;;4996800;28;20526;-71
2022/01/13 08:25:59;;;;;;;1.27;1.27;;;1.30;99.90;;;;;;4997255;28;20196;-71
2022/01/13 08:28:27;;;;;;;1.27;0.97;;;1.40;99.90;;;;;;4997211;28;20172;-71
2022/01/13 08:30:53;;;;;;;0.60;0.50;;;1.40;99.90;;;;;;4997875;28;20203;-71
2022/01/13 08:33:22;;;;;;;1.90;1.80;;;1.40;99.90;;;;;;4998169;28;20431;-71
2022/01/13 08:35:49;;;;;;;0.60;0.50;;;1.40;99.90;;;;;;4997140;28;20533;-71
2022/01/13 08:38:19;;;;;;;0.60;0.60;;;1.50;99.90;;;;;;4994081;28;20477;-71
2022/01/13 08:40:53;;;;;;;1.33;0.97;;;1.60;99.90;;;;;;4994810;28;20439;-71
2022/01/13 08:43:19;;;;;;;0.60;0.60;;;1.70;99.90;;;;;;4995145;28;20455;-72
2022/01/13 08:45:45;;;;;;;0.60;0.53;;;1.80;99.90;;;;;;4994948;28;21175;-71
2022/01/13 08:48:10;;;;;;;1.23;1.13;;;1.90;99.90;;;;;;4994490;28;20543;-71
2022/01/13 08:50:36;;;;;;;0.90;0.90;;;1.90;99.90;;;;;;4993871;28;20188;-71
2022/01/13 08:53:02;;;;;;;11.43;2.63;;;1.90;99.90;;;;;;4994579;28;20181;-72
2022/01/13 08:55:28;;;;;;;1.73;1.33;;;1.90;99.90;;;;;;4994880;28;20286;-71
2022/01/13 08:57:53;;;;;;;1.33;1.23;;;2.00;99.90;;;;;;4993947;28;20489;-71
2022/01/13 09:00:19;;;;;;;16.93;3.10;;;1.70;99.90;;;;;;4994602;28;20181;-71
2022/01/13 09:02:45;;;;;;;0.90;0.90;;;1.70;99.90;;;;;;4994801;28;20230;-72
2022/01/13 09:05:14;;;;;;;0.70;0.70;;;1.70;99.90;;;;;;4994063;28;20187;-71
2022/01/13 09:07:40;;;;;;;7.40;2.50;;;1.60;99.90;;;;;;4993761;28;20668;-71
2022/01/13 09:10:07;;;;;;;5.50;2.60;;;1.60;99.90;;;;;;4994577;28;20424;-71
2022/01/13 09:12:33;;;;;;;3.20;3.10;;;1.50;99.90;;;;;;4994558;28;20215;-71
2022/01/13 09:15:03;;;;;;;1.17;1.10;;;1.60;99.90;;;;;;4994195;28;20456;-72
2022/01/13 09:17:30;;;;;;;5.77;2.63;;;1.60;99.90;;;;;;4992509;28;20232;-71
2022/01/13 09:19:56;;;;;;;1.23;1.23;;;1.50;99.90;;;;;;4994319;28;20424;-71
2022/01/13 09:22:22;;;;;;;0.90;0.90;;;1.40;99.90;;;;;;4994285;28;20426;-71
2022/01/13 09:24:47;;;;;;;6.63;2.10;;;1.70;99.90;;;;;;4994072;28;20181;-72
2022/01/13 09:27:13;;;;;;;1.70;1.60;;;1.70;99.90;;;;;;4993418;28;20440;-71
2022/01/13 09:29:39;;;;;;;1.37;1.30;;;1.70;99.90;;;;;;4993917;28;20430;-71
2022/01/13 09:32:05;;;;;;;4.10;2.87;;;1.60;99.90;;;;;;4993345;28;20182;-71
2022/01/13 09:34:30;;;;;;;1.63;1.53;;;1.70;99.90;;;;;;4994183;28;20183;-72
2022/01/13 09:36:56;;;;;;;0.80;0.80;;;1.80;99.90;;;;;;4993445;28;20205;-71
2022/01/13 09:39:21;;;;;;;3.93;1.80;;;2.00;99.90;;;;;;4994190;28;20641;-71
2022/01/13 09:41:50;;;;;;;1.07;0.97;;;2.10;99.90;;;;;;4993915;28;20642;-71
2022/01/13 09:44:16;;;;;;;2.53;2.03;;;2.10;99.90;;;;;;4994042;28;20181;-71
2022/01/13 09:46:43;;;;;;;3.33;3.13;;;2.30;99.90;;;;;;4992902;28;20802;-71
2022/01/13 09:49:08;;;;;;;1.97;1.87;;;2.20;99.90;;;;;;4992874;28;20227;-72
2022/01/13 09:51:37;;;;;;;0.90;0.90;;;2.30;99.90;;;;;;4992278;28;20435;-71
2022/01/13 09:54:04;;;;;;;2.20;1.20;;;2.10;99.90;;;;;;4993840;28;20934;-72
2022/01/13 09:56:32;;;;;;;2.93;2.73;;;2.20;99.90;;;;;;4975406;28;20506;-71
2022/01/13 09:58:57;;;;;;;0.60;0.53;;;2.30;99.90;;;;;;4993075;28;20900;-72
2022/01/13 10:01:23;;;;;;;6.07;3.43;;;2.30;99.90;;;;;;4991595;28;20432;-71
2022/01/13 10:03:48;;;;;;;0.60;0.60;;;2.40;99.90;;;;;;4993492;28;20195;-71
2022/01/13 10:06:16;;;;;;;0.60;0.60;;;2.60;99.90;;;;;;4992045;28;20203;-71
2022/01/13 10:08:46;;;;;;;0.60;0.60;;;3.10;99.90;;;;;;4993553;28;20181;-71
2022/01/13 10:11:39;;;;;;;7.23;2.60;;;3.60;99.90;;;;;;4993355;28;20510;-71
2022/01/13 10:14:10;;;;;;;1.63;1.53;;;4.40;99.90;;;;;;4992490;28;20433;-72
2022/01/13 10:16:46;;;;;;;0.70;0.70;;;5.30;99.90;;;;;;4993068;28;20897;-71
2022/01/13 10:19:29;;;;;;;1.63;1.53;;;5.40;99.90;;;;;;4993387;28;20511;-71
2022/01/13 10:21:59;;;;;;;5.07;3.70;;;6.00;99.90;;;;;;4992482;28;20424;-71
2022/01/13 10:24:27;;;;;;;3.60;3.30;;;6.50;99.90;;;;;;4990541;28;20847;-71
2022/01/13 10:27:03;;;;;;;4.63;4.33;;;7.10;99.90;;;;;;4984158;28;20490;-72
2022/01/13 10:29:47;;;;;;;4.67;2.17;;;7.30;99.90;;;;;;4992804;28;20427;-72
2022/01/13 10:32:22;;;;;;;3.87;2.00;;;7.80;99.90;;;;;;4992693;28;20470;-72
2022/01/13 10:34:56;;;;;;;2.27;2.17;;;7.50;99.90;;;;;;4992918;28;20438;-72
2022/01/13 10:37:30;;;;;;;4.17;2.10;;;7.20;99.90;;;;;;4992424;28;20909;-71
2022/01/13 10:40:07;;;;;;;2.30;2.00;;;7.70;99.90;;;;;;4988739;28;20425;-72
2022/01/13 10:44:59;;;;;;;5.40;4.50;;;9.10;99.90;;;;;;4992575;28;20428;-71
2022/01/13 10:47:27;;;;;;;5.03;4.67;;;9.50;99.90;;;;;;4992220;28;20744;-71
2022/01/13 10:49:53;;;;;;;4.43;4.10;;;10.00;99.90;;;;;;4992662;28;20440;-71
2022/01/13 10:52:27;;;;;;;9.67;2.83;;;10.80;99.90;;;;;;4991983;28;20512;-72
2022/01/13 10:55:02;;;;;;;5.43;5.03;;;11.60;99.90;;;;;;4992689;28;20188;-72
2022/01/13 10:57:29;;;;;;;6.13;5.50;;;12.00;99.90;;;;;;4978686;28;20460;-72
2022/01/13 10:59:55;;;;;;;2.10;2.00;;;12.20;99.90;;;;;;4991634;28;20438;-72
2022/01/13 11:02:22;;;;;;;3.03;2.40;;;13.00;99.90;;;;;;4992052;28;20468;-72
2022/01/13 11:04:49;;;;;;;6.83;3.60;;;12.40;99.90;;;;;;4992429;28;20514;-72
2022/01/13 11:07:23;;;;;;;3.57;2.90;;;13.20;99.90;;;;;;4992354;28;20531;-73
2022/01/13 11:10:01;;;;;;;5.03;4.60;;;13.10;99.90;;;;;;4992377;28;20435;-72
2022/01/13 11:12:43;;;;;;;6.23;3.23;;;13.30;96.90;;;;;;4992472;28;20850;-73
2022/01/13 11:15:16;;;;;;;6.03;2.50;;;14.40;95.40;;;;;;4990641;28;20432;-72
2022/01/13 11:17:44;;;;;;;4.17;2.90;;;14.60;91.40;;;;;;4991969;28;20978;-72
2022/01/13 11:20:14;;;;;;;4.33;2.20;;;15.30;87.90;;;;;;4974527;28;20420;-72
2022/01/13 11:22:44;;;;;;;8.50;3.77;;;15.80;76.30;;;;;;4992286;28;20442;-72
2022/01/13 11:25:12;;;;;;;4.50;4.10;;;16.10;71.30;;;;;;4991367;28;20493;-72
2022/01/13 11:27:38;;;;;;;9.50;6.47;;;16.90;66.90;;;;;;4991850;28;20941;-73
2022/01/13 11:30:07;;;;;;;5.50;3.30;;;17.20;62.40;;;;;;4992186;28;20435;-73
2022/01/13 11:32:33;;;;;;;4.77;2.77;;;16.20;59.60;;;;;;4991874;28;20184;-73
2022/01/13 11:34:59;;;;;;;5.27;3.23;;;16.90;61.10;;;;;;4990374;28;20423;-72
2022/01/13 11:37:30;;;;;;;6.97;3.23;;;17.70;60.70;;;;;;4991626;28;20251;-72
2022/01/13 11:39:56;;;;;;;5.60;3.93;;;18.00;59.20;;;;;;4992138;28;20423;-73
2022/01/13 11:42:23;;;;;;;7.40;5.63;;;18.10;57.60;;;;;;4992150;28;20447;-72
2022/01/13 11:45:15;;;;;;;3.87;2.90;;;18.20;56.80;;;;;;4991990;28;20431;-72
2022/01/13 11:47:41;;;;;;;3.30;3.00;;;18.40;57.20;;;;;;4990642;28;20478;-72
2022/01/13 11:50:23;;;;;;;3.93;3.47;;;19.10;57.70;;;;;;4991434;28;20432;-72
2022/01/13 11:52:53;;;;;;;4.70;3.80;;;19.10;56.10;;;;;;4991847;28;20180;-72
2022/01/13 11:55:22;;;;;;;11.27;3.63;;;19.70;55.60;;;;;;4992146;28;20424;-72
2022/01/13 11:57:48;;;;;;;10.10;4.00;;;18.80;54.30;;;;;;4991892;28;20486;-73
2022/01/13 12:00:26;;;;;;;3.20;2.93;;;19.70;54.70;;;;;;4991887;28;20450;-73
2022/01/13 12:02:52;;;;;;;4.70;4.20;;;19.90;54.50;;;;;;4991119;28;20432;-72
2022/01/13 12:05:24;;;;;;;7.13;3.60;;;19.90;54.00;;;;;;4991685;28;20768;-72
2022/01/13 12:07:53;;;;;;;5.80;4.33;;;20.40;54.30;;;;;;4991607;28;20785;-73
2022/01/13 12:10:21;;;;;;;6.30;3.50;;;20.30;53.50;;;;;;4990829;28;20996;-73
2022/01/13 12:12:47;;;;;;;4.20;3.27;;;19.60;52.10;;;;;;4995325;28;20773;-73
2022/01/13 12:15:14;;;;;;;7.13;3.10;;;20.40;53.80;;;;;;4979607;28;20434;-73
2022/01/13 12:17:45;;;;;;;6.90;4.93;;;20.80;53.00;;;;;;4994452;28;20455;-73
2022/01/13 12:20:23;;;;;;;5.33;4.37;;;21.00;52.40;;;;;;4994935;28;20416;-73
2022/01/13 12:23:02;;;;;;;4.70;2.97;;;20.90;52.10;;;;;;4995500;28;20462;-73
2022/01/13 12:25:33;;;;;;;2.17;1.97;;;19.50;52.30;;;;;;4994186;28;20785;-73
2022/01/13 12:28:15;;;;;;;4.30;3.00;;;18.40;52.50;;;;;;4995154;28;20432;-73
2022/01/13 12:30:41;;;;;;;4.60;3.57;;;18.60;54.00;;;;;;4995190;28;20429;-73
2022/01/13 12:33:08;;;;;;;2.40;2.30;;;18.60;54.10;;;;;;4995203;28;20435;-73
2022/01/13 12:35:34;;;;;;;5.80;4.07;;;19.30;54.70;;;;;;4995198;28;20448;-73
2022/01/13 12:38:32;;;;;;;10.87;4.47;;;19.70;53.90;;;;;;4994440;28;20458;-73
2022/01/13 12:41:04;;;;;;;3.17;2.77;;;18.80;52.40;;;;;;4970293;28;20297;-73
2022/01/13 12:46:04;;;;;;;5.30;2.50;;;19.20;54.40;;;;;;4994723;28;20444;-72
2022/01/13 12:48:31;;;;;;;5.57;3.00;;;19.50;54.40;;;;;;4994853;28;20430;-72
2022/01/13 12:50:58;;;;;;;2.50;2.30;;;19.70;53.80;;;;;;4995052;28;20463;-72
2022/01/13 12:53:27;;;;;;;3.90;2.33;;;19.40;52.90;;;;;;4984892;28;20797;-72
2022/01/13 12:56:04;;;;;;;7.23;2.93;;;20.30;53.50;;;;;;4992119;28;20494;-72
2022/01/13 12:58:33;;;;;;;5.57;3.37;;;20.80;53.60;;;;;;4990078;28;20487;-72
2022/01/13 13:01:23;;;;;;;5.00;2.53;;;21.00;52.90;;;;;;4985127;28;20936;-73
2022/01/13 13:04:02;;;;;;;4.63;2.93;;;21.10;52.00;;;;;;4994435;28;20420;-72
2022/01/13 13:06:29;;;;;;;4.80;2.83;;;20.90;51.20;;;;;;4993877;28;20792;-72
2022/01/13 13:09:04;;;;;;;3.20;2.60;;;21.20;51.10;;;;;;4994669;28;20422;-72
2022/01/13 13:11:31;;;;;;;3.93;2.20;;;21.30;50.80;;;;;;4994617;28;20429;-72
2022/01/13 13:13:57;;;;;;;3.87;3.37;;;21.50;50.70;;;;;;4994412;28;20431;-73
2022/01/13 13:16:23;;;;;;;5.73;3.60;;;21.30;50.00;;;;;;4994254;28;20436;-72
2022/01/13 13:18:49;;;;;;;3.10;2.83;;;21.20;50.50;;;;;;4994409;28;20490;-72
2022/01/13 13:21:15;;;;;;;2.40;2.20;;;19.80;49.50;;;;;;4994118;28;20255;-72
2022/01/13 13:23:42;;;;;;;3.90;3.60;;;20.30;50.60;;;;;;4975952;28;20459;-72